Time;durP1;ratioP1;P1;durP2;ratioP2;P2;SDS_P1;SDS_P2;PMS_P1;PMS_P2;Temp;Humidity;BMP_temperature;BMP_pressure;BME280_temperature;BME280_humidity;BME280_pressure;Samples;Min_cycle;Max_cycle;Signal;HPM_P1;HPM_P2
2023/06/12 00:01:49;;;;;;;5.07;3.50;;;;;;;;;;5067544;28;20052;-85
2023/06/12 00:04:15;;;;;;;4.13;3.53;;;;;;;;;;5050199;28;20033;-85
2023/06/12 00:06:40;;;;;;;4.47;3.70;;;;;;;;;;5052977;28;20094;-84
2023/06/12 00:09:06;;;;;;;6.15;3.70;;;;;;;;;;5056948;28;20120;-85
2023/06/12 00:11:32;;;;;;;4.93;3.80;;;;;;;;;;5059422;28;20044;-85
2023/06/12 00:13:57;;;;;;;4.50;4.00;;;;;;;;;;5044294;28;20506;-85
2023/06/12 00:16:24;;;;;;;5.72;3.70;;;;;;;;;;5065017;28;20044;-85
2023/06/12 00:18:51;;;;;;;4.43;3.60;;;;;;;;;;5062722;28;20052;-85
2023/06/12 00:21:19;;;;;;;4.20;3.80;;;;;;;;;;5051203;28;20048;-85
2023/06/12 00:23:45;;;;;;;4.78;3.67;;;;;;;;;;5062391;28;20037;-85
2023/06/12 00:26:11;;;;;;;5.00;3.85;;;;;;;;;;5056489;28;20064;-85
2023/06/12 00:28:40;;;;;;;4.60;4.00;;;;;;;;;;5059451;28;20116;-85
2023/06/12 00:31:05;;;;;;;4.70;3.90;;;;;;;;;;5063329;28;20025;-85
2023/06/12 00:33:31;;;;;;;5.82;3.78;;;;;;;;;;5065692;28;20064;-85
2023/06/12 00:35:58;;;;;;;7.15;4.20;;;;;;;;;;5056952;28;20029;-85
2023/06/12 00:38:24;;;;;;;4.80;3.97;;;;;;;;;;5051482;28;20057;-85
2023/06/12 00:40:50;;;;;;;6.18;3.70;;;;;;;;;;5036563;28;20036;-86
2023/06/12 00:43:16;;;;;;;5.70;3.95;;;;;;;;;;5039948;28;20033;-85
2023/06/12 00:45:42;;;;;;;4.22;3.70;;;;;;;;;;5060000;28;20036;-85
2023/06/12 00:48:07;;;;;;;5.82;3.60;;;;;;;;;;5046115;28;20037;-85
2023/06/12 00:50:34;;;;;;;5.00;3.70;;;;;;;;;;5065859;28;20056;-85
2023/06/12 00:53:00;;;;;;;6.68;3.83;;;;;;;;;;5039150;28;20049;-85
2023/06/12 00:55:28;;;;;;;4.82;3.95;;;;;;;;;;5034491;28;20029;-85
2023/06/12 00:57:53;;;;;;;4.80;3.70;;;;;;;;;;5037681;28;20053;-85
2023/06/12 01:00:19;;;;;;;5.47;4.15;;;;;;;;;;5058435;28;20530;-85
2023/06/12 01:02:48;;;;;;;4.50;3.95;;;;;;;;;;5042993;28;20033;-84
2023/06/12 01:05:19;;;;;;;4.07;3.67;;;;;;;;;;5034305;28;20034;-84
2023/06/12 01:08:22;;;;;;;5.10;3.58;;;;;;;;;;5031353;28;20114;-85
2023/06/12 01:11:04;;;;;;;4.22;3.80;;;;;;;;;;5045530;28;20026;-85
2023/06/12 01:13:30;;;;;;;5.03;3.70;;;;;;;;;;5041872;28;20095;-85
2023/06/12 01:15:56;;;;;;;7.40;3.70;;;;;;;;;;5040744;28;20034;-85
2023/06/12 01:18:22;;;;;;;4.10;3.67;;;;;;;;;;5021212;28;20071;-85
2023/06/12 01:20:49;;;;;;;4.38;3.78;;;;;;;;;;5052497;28;20033;-85
2023/06/12 01:23:52;;;;;;;4.70;3.90;;;;;;;;;;5032247;28;20069;-84
2023/06/12 01:26:43;;;;;;;8.80;3.90;;;;;;;;;;5044074;28;20041;-84
2023/06/12 01:29:27;;;;;;;4.70;3.58;;;;;;;;;;5053392;28;20025;-85
2023/06/12 01:32:07;;;;;;;3.95;3.55;;;;;;;;;;5024712;28;20126;-85
2023/06/12 01:35:05;;;;;;;4.20;3.75;;;;;;;;;;5038663;28;20128;-85
2023/06/12 01:37:34;;;;;;;5.00;3.92;;;;;;;;;;5043046;28;20037;-85
2023/06/12 01:40:07;;;;;;;4.85;3.70;;;;;;;;;;5032921;28;20033;-85
2023/06/12 01:42:33;;;;;;;4.72;3.55;;;;;;;;;;5035967;28;20033;-85
2023/06/12 01:44:58;;;;;;;4.97;3.55;;;;;;;;;;5051990;28;20064;-85
2023/06/12 01:47:24;;;;;;;4.78;3.80;;;;;;;;;;5053646;28;20048;-85
2023/06/12 01:49:51;;;;;;;5.75;3.70;;;;;;;;;;5040683;28;20029;-85
2023/06/12 01:52:18;;;;;;;4.22;3.60;;;;;;;;;;5043489;28;20654;-84
2023/06/12 01:54:49;;;;;;;4.45;3.47;;;;;;;;;;5063691;28;20039;-84
2023/06/12 01:57:21;;;;;;;4.80;3.97;;;;;;;;;;5045782;28;20037;-84
2023/06/12 01:59:48;;;;;;;6.30;3.50;;;;;;;;;;5031892;28;20025;-84
2023/06/12 02:02:15;;;;;;;4.97;3.75;;;;;;;;;;5042909;28;20033;-85
2023/06/12 02:04:41;;;;;;;4.45;3.67;;;;;;;;;;5037728;28;20037;-84
2023/06/12 02:07:07;;;;;;;3.97;3.55;;;;;;;;;;5039080;28;20033;-85
2023/06/12 02:09:33;;;;;;;7.55;3.65;;;;;;;;;;5044557;28;20025;-85
2023/06/12 02:12:00;;;;;;;5.32;3.58;;;;;;;;;;5047070;28;20083;-84
2023/06/12 02:14:29;;;;;;;4.53;3.70;;;;;;;;;;5038231;28;20040;-84
2023/06/12 02:16:55;;;;;;;5.45;3.70;;;;;;;;;;5032644;28;20041;-84
2023/06/12 02:19:25;;;;;;;4.93;3.83;;;;;;;;;;5035175;28;20033;-84
2023/06/12 02:21:53;;;;;;;5.45;3.78;;;;;;;;;;5038463;28;20033;-85
2023/06/12 02:24:19;;;;;;;5.25;3.80;;;;;;;;;;5035862;28;20021;-85
2023/06/12 02:26:44;;;;;;;6.57;4.03;;;;;;;;;;5033761;28;20040;-86
2023/06/12 02:29:14;;;;;;;6.60;3.90;;;;;;;;;;5029995;28;20084;-86
2023/06/12 02:31:44;;;;;;;4.50;3.90;;;;;;;;;;5030624;28;20033;-86
2023/06/12 02:34:10;;;;;;;4.35;3.90;;;;;;;;;;5042626;28;20029;-86
2023/06/12 02:36:40;;;;;;;6.75;4.30;;;;;;;;;;5040808;28;20033;-85
2023/06/12 02:39:08;;;;;;;5.65;4.00;;;;;;;;;;5037408;28;20022;-85
2023/06/12 02:41:35;;;;;;;5.13;4.00;;;;;;;;;;5034861;28;20060;-86
2023/06/12 02:44:01;;;;;;;4.40;4.00;;;;;;;;;;5031146;28;20033;-86
2023/06/12 02:46:28;;;;;;;7.30;3.50;;;;;;;;;;5036372;28;20033;-86
2023/06/12 02:48:53;;;;;;;4.80;3.80;;;;;;;;;;5031149;28;20029;-85
2023/06/12 02:51:19;;;;;;;5.90;3.70;;;;;;;;;;5033841;28;20028;-86
2023/06/12 02:53:45;;;;;;;4.43;3.70;;;;;;;;;;5037127;28;20033;-85
2023/06/12 02:56:10;;;;;;;5.43;3.75;;;;;;;;;;5058160;28;20052;-85
2023/06/12 02:58:36;;;;;;;7.70;4.10;;;;;;;;;;5060652;28;20037;-85
2023/06/12 03:01:04;;;;;;;5.38;3.85;;;;;;;;;;5046486;28;20032;-85
2023/06/12 03:03:30;;;;;;;4.90;4.18;;;;;;;;;;5035257;28;20029;-86
2023/06/12 03:05:55;;;;;;;6.38;4.32;;;;;;;;;;5031577;28;20037;-86
2023/06/12 03:08:21;;;;;;;5.72;4.60;;;;;;;;;;5040770;28;20008;-86
2023/06/12 03:10:46;;;;;;;6.57;4.43;;;;;;;;;;5038615;28;20039;-85
2023/06/12 03:13:12;;;;;;;5.38;4.30;;;;;;;;;;5035913;28;20034;-86
2023/06/12 03:15:38;;;;;;;5.50;4.25;;;;;;;;;;5032454;28;20026;-85
2023/06/12 03:18:04;;;;;;;5.72;4.60;;;;;;;;;;5047126;28;20116;-85
2023/06/12 03:20:33;;;;;;;5.57;4.40;;;;;;;;;;5052112;28;20037;-86
2023/06/12 03:22:59;;;;;;;5.75;4.43;;;;;;;;;;5046713;28;20029;-85
2023/06/12 03:25:26;;;;;;;5.05;4.20;;;;;;;;;;5044418;28;20044;-86
2023/06/12 03:27:51;;;;;;;4.97;4.25;;;;;;;;;;5040509;28;20037;-85
2023/06/12 03:30:17;;;;;;;5.85;4.30;;;;;;;;;;5037341;28;20041;-85
2023/06/12 03:32:43;;;;;;;5.07;4.50;;;;;;;;;;5051983;28;20044;-86
2023/06/12 03:35:09;;;;;;;4.82;4.20;;;;;;;;;;5049695;28;20041;-85
2023/06/12 03:37:37;;;;;;;6.45;4.35;;;;;;;;;;5034271;28;20037;-85
2023/06/12 03:40:07;;;;;;;4.72;3.90;;;;;;;;;;5052730;28;20033;-86
2023/06/12 03:42:36;;;;;;;6.88;5.55;;;;;;;;;;5042193;28;20048;-86
2023/06/12 03:45:02;;;;;;;5.90;4.53;;;;;;;;;;5039777;28;20033;-86
2023/06/12 03:47:28;;;;;;;4.80;4.00;;;;;;;;;;5036808;28;20033;-86
2023/06/12 03:49:54;;;;;;;7.80;5.90;;;;;;;;;;5016607;28;20060;-86
2023/06/12 03:52:20;;;;;;;7.80;4.75;;;;;;;;;;5015456;28;20070;-86
2023/06/12 03:54:47;;;;;;;4.65;4.15;;;;;;;;;;5017283;28;20384;-85
2023/06/12 03:57:12;;;;;;;5.68;4.45;;;;;;;;;;5037559;28;20075;-85
2023/06/12 03:59:37;;;;;;;6.85;4.80;;;;;;;;;;5038940;28;20060;-85
2023/06/12 04:02:03;;;;;;;7.10;4.97;;;;;;;;;;5059391;28;20044;-86
2023/06/12 04:04:29;;;;;;;6.38;4.63;;;;;;;;;;5045652;28;20037;-85
2023/06/12 04:06:55;;;;;;;6.45;4.30;;;;;;;;;;5047940;28;20100;-86
2023/06/12 04:09:22;;;;;;;7.63;4.40;;;;;;;;;;5052820;28;20051;-85
2023/06/12 04:11:47;;;;;;;5.88;4.30;;;;;;;;;;5049422;28;20056;-85
2023/06/12 04:14:13;;;;;;;7.38;4.43;;;;;;;;;;5053356;28;20445;-85
2023/06/12 04:16:39;;;;;;;7.47;4.60;;;;;;;;;;5040046;28;20140;-85
2023/06/12 04:19:05;;;;;;;5.70;4.65;;;;;;;;;;5061054;28;20033;-85
2023/06/12 04:21:33;;;;;;;4.90;4.40;;;;;;;;;;5045938;28;20041;-86
2023/06/12 04:24:01;;;;;;;5.57;4.60;;;;;;;;;;5047938;28;20056;-86
2023/06/12 04:26:27;;;;;;;6.80;4.90;;;;;;;;;;5035592;28;20101;-85
2023/06/12 04:28:57;;;;;;;5.25;4.45;;;;;;;;;;5018077;28;20503;-85
2023/06/12 04:31:26;;;;;;;4.75;4.03;;;;;;;;;;5040809;28;20214;-85
2023/06/12 04:33:54;;;;;;;7.47;4.57;;;;;;;;;;5045449;28;20068;-85
2023/06/12 04:36:22;;;;;;;10.80;4.72;;;;;;;;;;5036190;28;20586;-85
2023/06/12 04:38:51;;;;;;;6.35;4.40;;;;;;;;;;5032229;28;20033;-85
2023/06/12 04:41:24;;;;;;;5.88;4.57;;;;;;;;;;5030346;28;20085;-84
2023/06/12 04:43:51;;;;;;;5.20;4.07;;;;;;;;;;5034268;28;20399;-85
2023/06/12 04:46:20;;;;;;;6.57;4.07;;;;;;;;;;5035228;28;20251;-85
2023/06/12 04:48:46;;;;;;;5.63;4.38;;;;;;;;;;5022504;28;20057;-85
2023/06/12 04:51:13;;;;;;;7.68;4.60;;;;;;;;;;5040670;28;20089;-85
2023/06/12 04:53:43;;;;;;;6.47;4.30;;;;;;;;;;5043461;28;20036;-85
2023/06/12 04:56:12;;;;;;;6.13;4.00;;;;;;;;;;5046243;28;20156;-85
2023/06/12 04:58:40;;;;;;;6.60;4.32;;;;;;;;;;5021347;28;20093;-85
2023/06/12 05:01:06;;;;;;;6.15;4.47;;;;;;;;;;5032422;28;20037;-85
2023/06/12 05:03:33;;;;;;;5.18;3.92;;;;;;;;;;5035057;28;20028;-85
2023/06/12 05:05:59;;;;;;;9.65;4.20;;;;;;;;;;5038560;28;20029;-85
2023/06/12 05:08:25;;;;;;;4.35;3.83;;;;;;;;;;5041608;28;20056;-85
2023/06/12 05:10:52;;;;;;;5.70;4.50;;;;;;;;;;5045043;28;20033;-85
2023/06/12 05:13:18;;;;;;;5.30;3.80;;;;;;;;;;5030116;28;20037;-85
2023/06/12 05:15:44;;;;;;;6.82;4.13;;;;;;;;;;5014173;28;20060;-85
2023/06/12 05:18:10;;;;;;;6.75;4.45;;;;;;;;;;5034160;28;20037;-85
2023/06/12 05:20:36;;;;;;;4.63;3.75;;;;;;;;;;5058304;28;20542;-85
2023/06/12 05:23:02;;;;;;;5.70;4.38;;;;;;;;;;5037428;28;20499;-85
2023/06/12 05:25:28;;;;;;;5.22;4.15;;;;;;;;;;5035397;28;20112;-86
2023/06/12 05:27:54;;;;;;;5.13;4.13;;;;;;;;;;5031704;28;20037;-86
2023/06/12 05:30:19;;;;;;;4.82;4.10;;;;;;;;;;5028907;28;20037;-86
2023/06/12 05:32:46;;;;;;;6.75;4.20;;;;;;;;;;5030687;28;20393;-85
2023/06/12 05:35:12;;;;;;;5.25;4.30;;;;;;;;;;5017596;28;20538;-85
2023/06/12 05:37:38;;;;;;;5.45;4.30;;;;;;;;;;5035878;28;20036;-86
2023/06/12 05:40:05;;;;;;;6.03;4.30;;;;;;;;;;5039228;28;20033;-85
2023/06/12 05:42:31;;;;;;;6.05;4.22;;;;;;;;;;5032795;28;20041;-87
2023/06/12 05:44:57;;;;;;;7.70;4.05;;;;;;;;;;5047518;28;20041;-87
2023/06/12 05:47:23;;;;;;;5.22;4.15;;;;;;;;;;5046698;28;20096;-86
2023/06/12 05:49:49;;;;;;;4.82;3.90;;;;;;;;;;5015837;28;20037;-86
2023/06/12 05:52:15;;;;;;;5.90;3.97;;;;;;;;;;5033766;28;20037;-85
2023/06/12 05:54:42;;;;;;;4.35;3.78;;;;;;;;;;5053933;28;20040;-86
2023/06/12 05:57:07;;;;;;;5.63;4.18;;;;;;;;;;5039881;28;20041;-87
2023/06/12 05:59:33;;;;;;;4.43;3.58;;;;;;;;;;5026246;28;20033;-86
2023/06/12 06:01:59;;;;;;;4.88;3.72;;;;;;;;;;5054096;28;20132;-86
2023/06/12 06:04:26;;;;;;;5.57;4.00;;;;;;;;;;5027512;28;20044;-86
2023/06/12 06:06:53;;;;;;;4.22;3.70;;;;;;;;;;5023613;28;20032;-86
2023/06/12 06:09:18;;;;;;;4.47;3.40;;;;;;;;;;5026493;28;20032;-85
2023/06/12 06:11:45;;;;;;;4.10;3.70;;;;;;;;;;5030798;28;20041;-85
2023/06/12 06:14:12;;;;;;;5.88;3.90;;;;;;;;;;5031595;28;20036;-86
2023/06/12 06:16:38;;;;;;;4.13;3.50;;;;;;;;;;5043632;28;20048;-87
2023/06/12 06:19:03;;;;;;;6.22;4.43;;;;;;;;;;5063097;28;20072;-88
2023/06/12 06:21:30;;;;;;;6.88;3.72;;;;;;;;;;5032174;28;20033;-87
2023/06/12 06:23:56;;;;;;;5.93;3.92;;;;;;;;;;5046387;28;20109;-87
2023/06/12 06:26:22;;;;;;;4.68;3.80;;;;;;;;;;5034390;28;20492;-86
2023/06/12 06:28:48;;;;;;;7.90;4.20;;;;;;;;;;5012237;28;20490;-87
2023/06/12 06:31:14;;;;;;;7.32;3.92;;;;;;;;;;5030347;28;20040;-86
2023/06/12 06:33:39;;;;;;;5.15;3.83;;;;;;;;;;5038656;28;20036;-85
2023/06/12 06:36:06;;;;;;;4.38;3.85;;;;;;;;;;5038673;28;20044;-87
2023/06/12 06:38:31;;;;;;;5.07;3.97;;;;;;;;;;5047478;28;20029;-88
2023/06/12 06:40:57;;;;;;;7.55;4.03;;;;;;;;;;5042825;28;20037;-87
2023/06/12 06:43:23;;;;;;;5.07;3.78;;;;;;;;;;5035499;28;20048;-86
2023/06/12 06:45:55;;;;;;;4.22;3.63;;;;;;;;;;5050164;28;20060;-87
2023/06/12 06:48:20;;;;;;;4.88;3.70;;;;;;;;;;5032087;28;20037;-87
2023/06/12 06:50:46;;;;;;;5.07;3.83;;;;;;;;;;5030417;28;20037;-87
2023/06/12 06:53:13;;;;;;;5.63;4.10;;;;;;;;;;5026269;28;20067;-87
2023/06/12 06:55:42;;;;;;;6.00;4.00;;;;;;;;;;5027898;28;20498;-86
2023/06/12 06:58:08;;;;;;;6.15;4.10;;;;;;;;;;5045384;28;20037;-86
2023/06/12 07:00:34;;;;;;;5.30;3.90;;;;;;;;;;5029534;28;20054;-85
2023/06/12 07:02:59;;;;;;;5.60;4.13;;;;;;;;;;5018843;28;20032;-87
2023/06/12 07:05:27;;;;;;;7.82;4.00;;;;;;;;;;5034124;28;20036;-88
2023/06/12 07:07:53;;;;;;;6.55;3.88;;;;;;;;;;5043378;28;20044;-87
2023/06/12 07:10:19;;;;;;;4.97;4.05;;;;;;;;;;5022793;28;20530;-87
2023/06/12 07:12:48;;;;;;;6.88;3.97;;;;;;;;;;5030433;28;20449;-86
2023/06/12 07:15:13;;;;;;;5.10;4.15;;;;;;;;;;5010319;28;20083;-83
2023/06/12 07:17:43;;;;;;;4.35;3.90;;;;;;;;;;5023650;28;20044;-83
2023/06/12 07:20:10;;;;;;;6.53;3.97;;;;;;;;;;5029028;28;20026;-84
2023/06/12 07:22:35;;;;;;;5.45;4.00;;;;;;;;;;5030475;28;20090;-83
2023/06/12 07:25:01;;;;;;;6.10;4.30;;;;;;;;;;5047268;28;20049;-83
2023/06/12 07:27:26;;;;;;;6.47;4.38;;;;;;;;;;5017008;28;20064;-82
2023/06/12 07:29:55;;;;;;;7.80;4.70;;;;;;;;;;5019888;28;20115;-83
2023/06/12 07:32:21;;;;;;;6.75;4.60;;;;;;;;;;5023902;28;20034;-85
2023/06/12 07:34:47;;;;;;;9.52;4.63;;;;;;;;;;5031356;28;20033;-85
2023/06/12 07:37:12;;;;;;;5.38;4.55;;;;;;;;;;5051853;28;20059;-87
2023/06/12 07:39:41;;;;;;;12.27;4.80;;;;;;;;;;5036531;28;20501;-82
2023/06/12 07:42:08;;;;;;;6.65;4.45;;;;;;;;;;5031696;28;20038;-85
2023/06/12 07:44:35;;;;;;;7.35;4.03;;;;;;;;;;5021036;28;20403;-84
2023/06/12 07:47:01;;;;;;;5.65;4.07;;;;;;;;;;5034188;28;20037;-85
2023/06/12 07:49:26;;;;;;;6.60;3.90;;;;;;;;;;5024071;28;20044;-84
2023/06/12 07:51:52;;;;;;;8.35;4.22;;;;;;;;;;5027238;28;20037;-84
2023/06/12 07:54:17;;;;;;;4.90;3.90;;;;;;;;;;5032531;28;20036;-84
2023/06/12 07:56:45;;;;;;;6.95;3.92;;;;;;;;;;5035918;28;20044;-85
2023/06/12 07:59:12;;;;;;;7.60;3.97;;;;;;;;;;5022621;28;20510;-85
2023/06/12 08:01:43;;;;;;;6.10;3.95;;;;;;;;;;5039934;28;20064;-85
2023/06/12 08:04:11;;;;;;;6.57;4.05;;;;;;;;;;5026837;28;20021;-88
2023/06/12 08:06:39;;;;;;;6.05;4.18;;;;;;;;;;5031914;28;20032;-87
2023/06/12 08:09:05;;;;;;;5.88;4.05;;;;;;;;;;5039726;28;20033;-86
2023/06/12 08:11:31;;;;;;;6.05;3.97;;;;;;;;;;5019524;28;20034;-88
2023/06/12 08:13:57;;;;;;;8.43;4.03;;;;;;;;;;5022644;28;20041;-87
2023/06/12 08:16:25;;;;;;;8.23;4.05;;;;;;;;;;5026261;28;20482;-88
2023/06/12 08:18:51;;;;;;;11.02;4.03;;;;;;;;;;5030471;28;20025;-87
2023/06/12 08:21:19;;;;;;;7.57;4.20;;;;;;;;;;5033152;28;20486;-90
2023/06/12 08:23:45;;;;;;;8.27;4.20;;;;;;;;;;5046278;28;20061;-89
2023/06/12 08:26:12;;;;;;;8.32;4.35;;;;;;;;;;5036821;28;20039;-86
2023/06/12 08:28:37;;;;;;;7.13;4.35;;;;;;;;;;5058758;28;20123;-86
2023/06/12 08:31:06;;;;;;;6.07;4.45;;;;;;;;;;5036869;28;20128;-87
2023/06/12 08:33:31;;;;;;;5.72;4.20;;;;;;;;;;5033773;28;20029;-86
2023/06/12 08:36:00;;;;;;;7.15;4.45;;;;;;;;;;5029194;28;20395;-87
2023/06/12 08:38:26;;;;;;;12.75;4.45;;;;;;;;;;5031059;28;20033;-87
2023/06/12 08:40:58;;;;;;;6.15;4.30;;;;;;;;;;5051818;28;20454;-87
2023/06/12 08:43:23;;;;;;;8.77;4.40;;;;;;;;;;5037292;28;20037;-86
2023/06/12 08:45:51;;;;;;;6.75;4.40;;;;;;;;;;5059231;28;20096;-86
2023/06/12 08:48:19;;;;;;;6.72;4.55;;;;;;;;;;5063529;28;20066;-86
2023/06/12 08:50:46;;;;;;;7.22;4.68;;;;;;;;;;5047928;28;20032;-87
2023/06/12 08:53:12;;;;;;;6.38;4.35;;;;;;;;;;5049862;28;20479;-86
2023/06/12 08:55:42;;;;;;;8.45;4.20;;;;;;;;;;5054260;28;20037;-87
2023/06/12 08:58:09;;;;;;;8.25;4.60;;;;;;;;;;5030177;28;20033;-87
2023/06/12 09:00:35;;;;;;;7.15;5.07;;;;;;;;;;5007043;28;20045;-87
2023/06/12 09:03:04;;;;;;;7.95;4.72;;;;;;;;;;5007197;28;20044;-86
2023/06/12 09:05:33;;;;;;;6.70;4.57;;;;;;;;;;5027185;28;20390;-86
2023/06/12 09:08:05;;;;;;;10.52;4.00;;;;;;;;;;5048858;28;20482;-86
2023/06/12 09:10:32;;;;;;;7.07;4.57;;;;;;;;;;5046599;28;20078;-86
2023/06/12 09:12:58;;;;;;;8.43;5.20;;;;;;;;;;5025186;28;20451;-86
2023/06/12 09:15:24;;;;;;;5.65;4.45;;;;;;;;;;5023865;28;20083;-86
2023/06/12 09:17:51;;;;;;;7.95;4.80;;;;;;;;;;5043821;28;20030;-86
2023/06/12 09:20:28;;;;;;;7.30;4.60;;;;;;;;;;5046592;28;20104;-87
2023/06/12 09:22:58;;;;;;;11.95;4.50;;;;;;;;;;5045557;28;20036;-87
2023/06/12 09:25:33;;;;;;;7.40;4.57;;;;;;;;;;5054134;28;20028;-87
2023/06/12 09:27:59;;;;;;;9.15;4.20;;;;;;;;;;5033994;28;20926;-87
2023/06/12 09:30:24;;;;;;;9.10;4.15;;;;;;;;;;5042802;28;20037;-87
2023/06/12 09:32:51;;;;;;;8.05;4.03;;;;;;;;;;5046820;28;20040;-86
2023/06/12 09:35:17;;;;;;;5.20;3.92;;;;;;;;;;5051381;28;20368;-86
2023/06/12 09:37:42;;;;;;;8.70;4.38;;;;;;;;;;5056311;28;20074;-86
2023/06/12 09:40:13;;;;;;;8.60;4.32;;;;;;;;;;5052649;28;20040;-87
2023/06/12 09:42:40;;;;;;;8.73;4.30;;;;;;;;;;5024544;28;20048;-86
2023/06/12 09:45:12;;;;;;;7.00;4.25;;;;;;;;;;5052485;28;20021;-87
2023/06/12 09:47:56;;;;;;;4.97;4.47;;;;;;;;;;5033332;28;20586;-87
2023/06/12 09:50:25;;;;;;;8.95;4.15;;;;;;;;;;5042895;28;20033;-87
2023/06/12 09:52:57;;;;;;;6.18;4.60;;;;;;;;;;5045545;28;20053;-86
2023/06/12 09:55:24;;;;;;;10.15;4.40;;;;;;;;;;5043519;28;20033;-86
2023/06/12 09:57:52;;;;;;;8.18;4.18;;;;;;;;;;5051579;28;20033;-87
2023/06/12 10:00:19;;;;;;;5.85;4.13;;;;;;;;;;5045595;28;20116;-87
2023/06/12 10:03:00;;;;;;;6.95;4.38;;;;;;;;;;5042702;28;20495;-86
2023/06/12 10:05:47;;;;;;;9.50;4.53;;;;;;;;;;5042397;28;20048;-87
2023/06/12 10:08:15;;;;;;;5.13;3.88;;;;;;;;;;5050816;28;20034;-87
2023/06/12 10:10:41;;;;;;;9.73;4.35;;;;;;;;;;5030149;28;20056;-87
2023/06/12 10:13:07;;;;;;;9.43;4.00;;;;;;;;;;5051387;28;20086;-87
2023/06/12 10:15:33;;;;;;;6.80;3.90;;;;;;;;;;5053655;28;20039;-86
2023/06/12 10:17:58;;;;;;;7.88;4.07;;;;;;;;;;5051425;28;20029;-86
2023/06/12 10:20:25;;;;;;;6.95;4.03;;;;;;;;;;5044051;28;20055;-86
2023/06/12 10:22:55;;;;;;;5.78;3.97;;;;;;;;;;5031062;28;20033;-86
2023/06/12 10:25:21;;;;;;;5.88;3.90;;;;;;;;;;5051055;28;20047;-87
2023/06/12 10:27:47;;;;;;;4.93;3.90;;;;;;;;;;5054084;28;20049;-87
2023/06/12 10:30:16;;;;;;;5.03;3.80;;;;;;;;;;5023321;28;20025;-87
2023/06/12 10:32:43;;;;;;;8.00;3.90;;;;;;;;;;5043228;28;20747;-87
2023/06/12 10:35:09;;;;;;;7.45;3.60;;;;;;;;;;5032551;28;20044;-87
2023/06/12 10:37:39;;;;;;;8.38;3.85;;;;;;;;;;5033413;28;20033;-86
2023/06/12 10:40:10;;;;;;;6.45;3.50;;;;;;;;;;5036597;28;20394;-86
2023/06/12 10:42:44;;;;;;;6.28;3.60;;;;;;;;;;5022239;28;20044;-86
2023/06/12 10:45:13;;;;;;;5.90;3.50;;;;;;;;;;5022496;28;20036;-86
2023/06/12 10:47:38;;;;;;;5.57;3.85;;;;;;;;;;5043245;28;20022;-86
2023/06/12 10:50:05;;;;;;;8.43;3.60;;;;;;;;;;5045002;28;20494;-87
2023/06/12 10:52:31;;;;;;;5.47;3.58;;;;;;;;;;5034274;28;20429;-87
2023/06/12 10:55:20;;;;;;;8.63;3.97;;;;;;;;;;5055378;28;20029;-87
2023/06/12 10:57:54;;;;;;;6.13;3.67;;;;;;;;;;5039856;28;20029;-87
2023/06/12 11:00:22;;;;;;;4.70;3.60;;;;;;;;;;5031371;28;20032;-87
2023/06/12 11:03:02;;;;;;;8.70;3.63;;;;;;;;;;5036971;28;20048;-87
2023/06/12 11:05:29;;;;;;;6.60;3.65;;;;;;;;;;5029373;28;20033;-87
2023/06/12 11:08:03;;;;;;;6.25;3.60;;;;;;;;;;5025316;28;20033;-86
2023/06/12 11:10:30;;;;;;;7.05;3.28;;;;;;;;;;5044187;28;20029;-87
2023/06/12 11:12:56;;;;;;;4.72;3.50;;;;;;;;;;5048009;28;20067;-87
2023/06/12 11:15:22;;;;;;;4.85;3.60;;;;;;;;;;5051633;28;20040;-86
2023/06/12 11:17:48;;;;;;;5.47;3.30;;;;;;;;;;5030348;28;20056;-87
2023/06/12 11:20:14;;;;;;;4.85;3.42;;;;;;;;;;5026499;28;20081;-87
2023/06/12 11:22:40;;;;;;;6.38;3.22;;;;;;;;;;5041688;28;20037;-87
2023/06/12 11:25:06;;;;;;;6.68;3.40;;;;;;;;;;5027825;28;20035;-87
2023/06/12 11:27:34;;;;;;;4.50;3.40;;;;;;;;;;5031068;28;20037;-87
2023/06/12 11:30:14;;;;;;;6.75;3.50;;;;;;;;;;5020731;28;20029;-87
2023/06/12 11:32:43;;;;;;;5.22;3.63;;;;;;;;;;5057039;28;20033;-87
2023/06/12 11:35:11;;;;;;;4.05;3.20;;;;;;;;;;5045079;28;20033;-86
2023/06/12 11:37:38;;;;;;;5.32;3.65;;;;;;;;;;5041382;28;20399;-87
2023/06/12 11:40:09;;;;;;;7.22;3.38;;;;;;;;;;5028952;28;20049;-87
2023/06/12 11:42:40;;;;;;;3.75;3.00;;;;;;;;;;5017144;28;20092;-87
2023/06/12 11:45:11;;;;;;;6.88;3.22;;;;;;;;;;5058104;28;20025;-87
2023/06/12 11:47:41;;;;;;;5.45;3.30;;;;;;;;;;5032560;28;20033;-87
2023/06/12 11:50:09;;;;;;;5.32;3.00;;;;;;;;;;5041525;28;20037;-87
2023/06/12 11:52:36;;;;;;;9.27;3.00;;;;;;;;;;5049537;28;20093;-87
2023/06/12 11:55:04;;;;;;;5.05;3.00;;;;;;;;;;5035976;28;20024;-87
2023/06/12 11:57:30;;;;;;;4.75;3.10;;;;;;;;;;5056953;28;20048;-86
2023/06/12 11:59:56;;;;;;;3.80;3.00;;;;;;;;;;5045204;28;20097;-87
2023/06/12 12:02:29;;;;;;;7.10;3.30;;;;;;;;;;5041314;28;20058;-87
2023/06/12 12:05:04;;;;;;;6.88;3.10;;;;;;;;;;5026439;28;20040;-86
2023/06/12 12:07:30;;;;;;;7.85;3.00;;;;;;;;;;5027568;28;20044;-87
2023/06/12 12:10:10;;;;;;;5.90;2.97;;;;;;;;;;5023340;28;20048;-87
2023/06/12 12:12:39;;;;;;;5.90;3.60;;;;;;;;;;5022642;28;20503;-87
2023/06/12 12:15:06;;;;;;;4.75;2.83;;;;;;;;;;5044846;28;20061;-88
2023/06/12 12:17:32;;;;;;;7.75;2.83;;;;;;;;;;5045140;28;20060;-87
2023/06/12 12:20:02;;;;;;;6.40;2.90;;;;;;;;;;5049293;28;20024;-87
2023/06/12 12:22:27;;;;;;;5.20;2.53;;;;;;;;;;5043715;28;20099;-87
2023/06/12 12:24:54;;;;;;;4.90;2.70;;;;;;;;;;5023054;28;20041;-86
2023/06/12 12:27:20;;;;;;;3.63;2.60;;;;;;;;;;5026653;28;20037;-86
2023/06/12 12:29:46;;;;;;;3.58;2.63;;;;;;;;;;5013452;28;20033;-86
2023/06/12 12:32:12;;;;;;;4.43;2.90;;;;;;;;;;5049480;28;20037;-86
2023/06/12 12:34:37;;;;;;;6.28;2.70;;;;;;;;;;5054396;28;20124;-87
2023/06/12 12:37:03;;;;;;;9.10;2.97;;;;;;;;;;5039853;28;20041;-87
2023/06/12 12:39:29;;;;;;;6.45;2.80;;;;;;;;;;5029210;28;20025;-86
2023/06/12 12:41:54;;;;;;;6.00;3.13;;;;;;;;;;5047032;28;20051;-86
2023/06/12 12:44:20;;;;;;;9.15;2.75;;;;;;;;;;5034899;28;20108;-86
2023/06/12 12:46:45;;;;;;;5.03;2.70;;;;;;;;;;5055369;28;20075;-86
2023/06/12 12:49:11;;;;;;;3.15;2.70;;;;;;;;;;5057619;28;20094;-86
2023/06/12 12:51:36;;;;;;;5.90;2.88;;;;;;;;;;5012766;28;20407;-87
2023/06/12 12:54:02;;;;;;;9.95;3.00;;;;;;;;;;5043927;28;20112;-87
2023/06/12 12:56:27;;;;;;;3.60;2.55;;;;;;;;;;5049290;28;20029;-86
2023/06/12 12:58:53;;;;;;;5.63;2.90;;;;;;;;;;5052737;28;20037;-86
2023/06/12 13:01:18;;;;;;;4.00;2.95;;;;;;;;;;5056068;28;20038;-86
2023/06/12 13:03:44;;;;;;;8.70;2.90;;;;;;;;;;5045198;28;20033;-87
2023/06/12 13:06:12;;;;;;;8.00;2.88;;;;;;;;;;5042571;28;20033;-86
2023/06/12 13:08:38;;;;;;;11.02;2.88;;;;;;;;;;5029545;28;20052;-87
2023/06/12 13:11:03;;;;;;;4.15;2.70;;;;;;;;;;5051326;28;20037;-87
2023/06/12 13:13:29;;;;;;;7.68;2.83;;;;;;;;;;5037514;28;20044;-87
2023/06/12 13:15:54;;;;;;;3.95;2.58;;;;;;;;;;5034425;28;20037;-87
2023/06/12 13:18:20;;;;;;;3.40;2.40;;;;;;;;;;5044187;28;20037;-87
2023/06/12 13:20:46;;;;;;;8.77;2.55;;;;;;;;;;5033435;28;20033;-86
2023/06/12 13:23:11;;;;;;;4.35;2.60;;;;;;;;;;5029270;28;20116;-86
2023/06/12 13:25:38;;;;;;;4.72;2.70;;;;;;;;;;5044423;28;20037;-87
2023/06/12 13:28:04;;;;;;;4.95;2.90;;;;;;;;;;5042200;28;20403;-86
2023/06/12 13:30:30;;;;;;;8.73;2.80;;;;;;;;;;5043380;28;20418;-87
2023/06/12 13:32:55;;;;;;;5.00;2.70;;;;;;;;;;5043486;28;20086;-89
2023/06/12 13:35:21;;;;;;;5.75;3.00;;;;;;;;;;5031751;28;20040;-88
2023/06/12 13:37:46;;;;;;;3.47;2.40;;;;;;;;;;5049127;28;20029;-88
2023/06/12 13:40:13;;;;;;;4.65;2.78;;;;;;;;;;5052445;28;20036;-88
2023/06/12 13:42:39;;;;;;;4.85;2.50;;;;;;;;;;5019434;28;20175;-85
2023/06/12 13:45:05;;;;;;;7.07;3.05;;;;;;;;;;5043666;28;20025;-86
2023/06/12 13:47:31;;;;;;;4.00;2.78;;;;;;;;;;5049183;28;20036;-84
2023/06/12 13:49:57;;;;;;;3.65;2.70;;;;;;;;;;5040060;28;20025;-83
2023/06/12 13:52:23;;;;;;;4.53;2.50;;;;;;;;;;5020115;28;20494;-87
2023/06/12 13:54:48;;;;;;;4.13;2.72;;;;;;;;;;5035724;28;20041;-84
2023/06/12 13:57:14;;;;;;;6.13;2.92;;;;;;;;;;5022523;28;20069;-85
2023/06/12 13:59:39;;;;;;;4.55;2.92;;;;;;;;;;5043942;28;20028;-86
2023/06/12 14:02:07;;;;;;;5.03;2.35;;;;;;;;;;5046842;28;20037;-87
2023/06/12 14:04:36;;;;;;;5.15;2.70;;;;;;;;;;5035767;28;20079;-87
2023/06/12 14:07:02;;;;;;;5.40;2.75;;;;;;;;;;5034871;28;20650;-85
2023/06/12 14:09:27;;;;;;;5.50;3.83;;;;;;;;;;5020625;28;20029;-84
2023/06/12 14:11:56;;;;;;;5.07;3.53;;;;;;;;;;5025851;28;20486;-84
2023/06/12 14:14:22;;;;;;;9.95;4.97;;;;;;;;;;5046657;28;20035;-84
2023/06/12 14:16:47;;;;;;;3.95;2.83;;;;;;;;;;5032629;28;20025;-84
2023/06/12 14:19:13;;;;;;;6.78;4.55;;;;;;;;;;5044281;28;20025;-84
2023/06/12 14:21:38;;;;;;;7.68;3.33;;;;;;;;;;5003336;28;20086;-85
2023/06/12 14:24:04;;;;;;;12.38;7.60;;;;;;;;;;5041282;28;20036;-84
2023/06/12 14:26:31;;;;;;;5.57;2.53;;;;;;;;;;5027806;28;20079;-84
2023/06/12 14:28:56;;;;;;;6.60;3.05;;;;;;;;;;5048796;28;20043;-84
2023/06/12 14:31:22;;;;;;;5.28;3.08;;;;;;;;;;5049456;28;20025;-84
2023/06/12 14:33:48;;;;;;;6.10;2.70;;;;;;;;;;5036581;28;20372;-84
2023/06/12 14:36:13;;;;;;;6.68;3.22;;;;;;;;;;5041261;28;20021;-84
2023/06/12 14:38:39;;;;;;;3.92;2.80;;;;;;;;;;5026196;28;20549;-84
2023/06/12 14:41:05;;;;;;;6.60;5.00;;;;;;;;;;5049644;28;20037;-84
2023/06/12 14:43:30;;;;;;;4.57;2.80;;;;;;;;;;5050995;28;20043;-84
2023/06/12 14:45:56;;;;;;;5.07;3.58;;;;;;;;;;5032414;28;20034;-84